Time;durP1;ratioP1;P1;durP2;ratioP2;P2;SDS_P1;SDS_P2;PMS_P1;PMS_P2;Temp;Humidity;BMP_temperature;BMP_pressure;BME280_temperature;BME280_humidity;BME280_pressure;Samples;Min_cycle;Max_cycle;Signal;HPM_P1;HPM_P2
2021/01/24 00:00:51;;;;;;;4.00;3.63;;;4.60;99.90;;;;;;4985918;28;20175;-72
2021/01/24 00:03:18;;;;;;;4.38;3.88;;;4.60;99.90;;;;;;4964832;28;20205;-72
2021/01/24 00:05:45;;;;;;;6.57;4.07;;;4.70;99.90;;;;;;4982059;28;20278;-72
2021/01/24 00:08:12;;;;;;;4.28;3.88;;;4.60;99.90;;;;;;4975603;28;20219;-72
2021/01/24 00:10:43;;;;;;;4.65;4.05;;;4.80;99.90;;;;;;5003235;28;20284;-72
2021/01/24 00:13:11;;;;;;;4.78;3.70;;;4.50;99.90;;;;;;4972499;28;20211;-72
2021/01/24 00:15:37;;;;;;;4.63;3.63;;;4.40;99.90;;;;;;4982288;28;20205;-72
2021/01/24 00:18:03;;;;;;;4.00;3.07;;;4.40;99.90;;;;;;4996289;28;20672;-72
2021/01/24 00:20:29;;;;;;;4.40;3.40;;;4.60;99.90;;;;;;4997845;28;20418;-72
2021/01/24 00:22:56;;;;;;;3.47;2.97;;;4.50;99.90;;;;;;4999894;28;20756;-72
2021/01/24 00:25:22;;;;;;;4.05;3.28;;;4.50;99.90;;;;;;4987031;28;20437;-72
2021/01/24 00:27:47;;;;;;;4.30;3.70;;;4.40;99.90;;;;;;4968888;28;20337;-72
2021/01/24 00:30:14;;;;;;;3.97;3.60;;;4.40;99.90;;;;;;4983574;28;20437;-72
2021/01/24 00:32:40;;;;;;;5.10;3.83;;;4.60;99.90;;;;;;4997773;28;20512;-72
2021/01/24 00:35:09;;;;;;;4.78;3.55;;;4.40;99.90;;;;;;5012006;28;20278;-72
2021/01/24 00:37:36;;;;;;;4.00;3.60;;;4.30;99.90;;;;;;5017403;28;20240;-72
2021/01/24 00:40:05;;;;;;;3.95;3.58;;;4.30;99.90;;;;;;5013936;28;20222;-72
2021/01/24 00:42:31;;;;;;;3.55;3.17;;;4.30;99.90;;;;;;5002072;28;20197;-72
2021/01/24 00:45:00;;;;;;;3.00;2.70;;;4.10;99.90;;;;;;4977649;28;20191;-72
2021/01/24 00:47:26;;;;;;;3.55;2.50;;;4.10;99.90;;;;;;4992231;28;20198;-72
2021/01/24 00:49:52;;;;;;;2.40;2.20;;;4.30;99.90;;;;;;4998236;28;20564;-72
2021/01/24 00:52:18;;;;;;;3.45;2.45;;;4.00;99.90;;;;;;5023132;28;20232;-72
2021/01/24 00:54:45;;;;;;;2.80;2.55;;;4.00;99.90;;;;;;5014898;28;20668;-72
2021/01/24 00:57:11;;;;;;;3.15;2.85;;;4.10;99.90;;;;;;5017553;28;20190;-72
2021/01/24 00:59:37;;;;;;;3.03;2.70;;;3.90;99.90;;;;;;4983022;28;20213;-72
2021/01/24 01:02:04;;;;;;;2.47;2.28;;;4.10;99.90;;;;;;5012887;28;20433;-72
2021/01/24 01:04:32;;;;;;;2.20;2.00;;;4.00;99.90;;;;;;4978499;28;20194;-72
2021/01/24 01:06:58;;;;;;;2.22;2.03;;;3.70;99.90;;;;;;4976604;28;20199;-72
2021/01/24 01:09:24;;;;;;;2.60;2.40;;;3.90;99.90;;;;;;4972807;28;20210;-72
2021/01/24 01:11:52;;;;;;;2.95;2.65;;;3.80;99.90;;;;;;4982763;28;20214;-72
2021/01/24 01:14:18;;;;;;;2.53;1.90;;;3.70;99.90;;;;;;4986166;28;20191;-72
2021/01/24 01:16:44;;;;;;;2.63;1.90;;;3.70;99.90;;;;;;4987006;28;20691;-72
2021/01/24 01:19:13;;;;;;;2.60;2.00;;;3.50;99.90;;;;;;4987931;28;20269;-72
2021/01/24 01:21:39;;;;;;;2.97;2.67;;;3.40;99.90;;;;;;5013096;28;20799;-72
2021/01/24 01:24:08;;;;;;;2.20;2.00;;;3.50;99.90;;;;;;5022410;28;20228;-72
2021/01/24 01:26:36;;;;;;;2.50;2.30;;;3.60;99.90;;;;;;4982181;28;20554;-72
2021/01/24 01:29:02;;;;;;;4.25;2.30;;;3.40;99.90;;;;;;4989415;28;20233;-72
2021/01/24 01:31:28;;;;;;;2.88;2.20;;;3.30;99.90;;;;;;4971253;28;20544;-72
2021/01/24 01:33:54;;;;;;;2.13;1.92;;;3.20;99.90;;;;;;4980423;28;20186;-72
2021/01/24 01:36:21;;;;;;;2.63;2.40;;;3.40;99.90;;;;;;4978517;28;20274;-72
2021/01/24 01:38:47;;;;;;;2.28;2.08;;;3.10;99.90;;;;;;4984274;28;20630;-72
2021/01/24 01:41:13;;;;;;;2.20;2.00;;;3.00;99.90;;;;;;4983593;28;20645;-72
2021/01/24 01:43:39;;;;;;;2.33;2.13;;;2.80;99.90;;;;;;4980180;28;20214;-72
2021/01/24 01:46:05;;;;;;;2.53;2.33;;;2.60;99.90;;;;;;4985849;28;20258;-72
2021/01/24 01:48:32;;;;;;;3.40;2.65;;;2.50;99.90;;;;;;4996222;28;20462;-72
2021/01/24 01:50:59;;;;;;;3.90;3.40;;;2.60;99.90;;;;;;4970165;28;20198;-72
2021/01/24 01:53:25;;;;;;;4.82;3.70;;;2.40;99.90;;;;;;4981165;28;20261;-72
2021/01/24 01:55:51;;;;;;;4.40;3.55;;;1.90;99.90;;;;;;4989687;28;20190;-72
2021/01/24 01:58:22;;;;;;;5.10;4.30;;;2.30;99.90;;;;;;4981475;28;20289;-72
2021/01/24 02:00:50;;;;;;;12.45;5.22;;;2.10;99.90;;;;;;4984037;28;20584;-72
2021/01/24 02:03:47;;;;;;;9.82;5.97;;;2.30;99.90;;;;;;4978814;28;20197;-72
2021/01/24 02:06:38;;;;;;;9.07;6.85;;;2.20;99.90;;;;;;4956100;28;20226;-72
2021/01/24 02:09:28;;;;;;;9.88;6.63;;;2.00;99.90;;;;;;4991140;28;20218;-72
2021/01/24 02:12:06;;;;;;;14.57;9.15;;;2.10;99.90;;;;;;4977179;28;20693;-72
2021/01/24 02:14:38;;;;;;;16.05;11.55;;;2.00;99.90;;;;;;5000179;28;20616;-72
2021/01/24 02:17:06;;;;;;;15.80;10.70;;;1.90;99.90;;;;;;4985794;28;20268;-72
2021/01/24 02:19:42;;;;;;;16.67;12.40;;;2.20;99.90;;;;;;4986145;28;20217;-72
2021/01/24 02:22:10;;;;;;;16.45;11.35;;;1.90;99.90;;;;;;4989286;28;20187;-72
2021/01/24 02:24:48;;;;;;;16.35;11.35;;;2.10;99.90;;;;;;4988415;28;20186;-72
2021/01/24 02:27:27;;;;;;;18.58;12.10;;;2.00;99.90;;;;;;4966384;28;20222;-72
2021/01/24 02:30:15;;;;;;;23.38;15.63;;;1.80;99.90;;;;;;4998683;28;20238;-72
2021/01/24 02:32:43;;;;;;;23.52;15.10;;;1.80;99.90;;;;;;5000270;28;20213;-72
2021/01/24 02:35:10;;;;;;;24.55;15.77;;;1.60;99.90;;;;;;5004297;28;20214;-72
2021/01/24 02:37:37;;;;;;;24.48;14.02;;;2.00;99.90;;;;;;5019948;28;20225;-72
2021/01/24 02:40:05;;;;;;;20.65;13.45;;;1.90;99.90;;;;;;4999028;28;20292;-72
2021/01/24 02:42:32;;;;;;;16.00;11.50;;;1.90;99.90;;;;;;5004226;28;20193;-72
2021/01/24 02:44:58;;;;;;;14.52;10.88;;;2.00;99.90;;;;;;5015700;28;20205;-72
2021/01/24 02:47:29;;;;;;;14.82;10.07;;;1.70;99.90;;;;;;4979379;28;20711;-72
2021/01/24 02:50:01;;;;;;;13.13;8.23;;;1.70;99.90;;;;;;5004296;28;20214;-72
2021/01/24 02:52:28;;;;;;;12.25;8.40;;;1.70;99.90;;;;;;5009670;28;20560;-72
2021/01/24 02:54:54;;;;;;;13.48;9.20;;;1.50;99.90;;;;;;5019122;28;20205;-72
2021/01/24 02:57:23;;;;;;;9.05;6.25;;;1.10;99.90;;;;;;5006476;28;20227;-72
2021/01/24 02:59:50;;;;;;;9.02;6.50;;;1.80;99.90;;;;;;5018339;28;20202;-72
2021/01/24 03:02:18;;;;;;;9.43;6.78;;;1.70;99.90;;;;;;5001191;28;20229;-72
2021/01/24 03:04:44;;;;;;;8.23;5.28;;;1.50;99.90;;;;;;5002594;28;20205;-72
2021/01/24 03:07:12;;;;;;;7.38;5.53;;;1.70;99.90;;;;;;5005382;28;20186;-72
2021/01/24 03:09:38;;;;;;;6.13;4.63;;;1.40;99.90;;;;;;5027127;28;20687;-72
2021/01/24 03:12:10;;;;;;;6.82;5.32;;;1.40;99.90;;;;;;4998662;28;20206;-73
2021/01/24 03:14:38;;;;;;;5.53;4.10;;;1.50;99.90;;;;;;5014073;28;20201;-72
2021/01/24 03:17:06;;;;;;;5.22;3.92;;;1.70;99.90;;;;;;5007154;28;20186;-72
2021/01/24 03:19:33;;;;;;;4.72;3.53;;;1.60;99.90;;;;;;5004528;28;20289;-73
2021/01/24 03:22:01;;;;;;;4.88;3.00;;;1.60;99.90;;;;;;5008681;28;20193;-72
2021/01/24 03:24:31;;;;;;;4.38;3.50;;;1.40;99.90;;;;;;5004984;28;20194;-72
2021/01/24 03:26:57;;;;;;;3.65;3.05;;;1.30;99.90;;;;;;5006200;28;20292;-73
2021/01/24 03:29:24;;;;;;;5.00;3.60;;;1.40;99.90;;;;;;5007761;28;20216;-72
2021/01/24 03:31:50;;;;;;;7.30;4.07;;;1.30;99.90;;;;;;5001975;28;20294;-72
2021/01/24 03:34:25;;;;;;;5.55;3.30;;;1.50;99.90;;;;;;5016910;28;20544;-72
2021/01/24 03:36:54;;;;;;;5.97;4.35;;;1.50;99.90;;;;;;5008287;28;20263;-72
2021/01/24 03:39:20;;;;;;;5.47;3.80;;;1.60;99.90;;;;;;5009746;28;20206;-72
2021/01/24 03:41:47;;;;;;;9.05;5.68;;;1.50;99.90;;;;;;5022723;28;20196;-72
2021/01/24 03:44:13;;;;;;;11.93;7.07;;;1.50;99.90;;;;;;5012573;28;20214;-72
2021/01/24 03:46:39;;;;;;;18.42;10.05;;;1.50;99.90;;;;;;5018975;28;20580;-73
2021/01/24 03:49:06;;;;;;;14.98;9.48;;;1.00;99.90;;;;;;4994908;28;20288;-73
2021/01/24 03:51:33;;;;;;;24.05;13.13;;;1.30;99.90;;;;;;4997466;28;20178;-72
2021/01/24 03:54:02;;;;;;;17.52;11.88;;;1.50;99.90;;;;;;5001892;28;20265;-73
2021/01/24 03:56:28;;;;;;;21.75;12.95;;;1.50;99.90;;;;;;4977679;28;20321;-73
2021/01/24 03:58:54;;;;;;;28.27;17.00;;;1.60;99.90;;;;;;4976934;28;20206;-73
2021/01/24 04:01:20;;;;;;;24.50;15.60;;;1.40;99.90;;;;;;5013755;28;20185;-73
2021/01/24 04:03:46;;;;;;;27.17;15.70;;;1.40;99.90;;;;;;5009985;28;20433;-73
2021/01/24 04:06:12;;;;;;;25.75;14.90;;;1.30;99.90;;;;;;5003022;28;20596;-72
2021/01/24 04:08:40;;;;;;;20.83;12.60;;;1.40;99.90;;;;;;4994868;28;20562;-73
2021/01/24 04:11:06;;;;;;;21.92;13.50;;;1.50;99.90;;;;;;5005343;28;20182;-72
2021/01/24 04:13:33;;;;;;;20.45;13.00;;;1.20;99.90;;;;;;4985353;28;20210;-73
2021/01/24 04:15:59;;;;;;;21.42;13.00;;;1.30;99.90;;;;;;5019354;28;20289;-72
2021/01/24 04:18:25;;;;;;;27.10;13.85;;;1.30;99.90;;;;;;5019641;28;20293;-73
2021/01/24 04:20:51;;;;;;;20.55;12.10;;;1.30;99.90;;;;;;5014065;28;20682;-73
2021/01/24 04:23:19;;;;;;;16.90;8.27;;;1.50;99.90;;;;;;5014948;28;20189;-73
2021/01/24 04:25:45;;;;;;;12.77;8.35;;;1.30;99.90;;;;;;5002670;28;20436;-73
2021/01/24 04:28:11;;;;;;;10.40;8.33;;;1.30;99.90;;;;;;4993276;28;20222;-73
2021/01/24 04:30:37;;;;;;;12.10;7.70;;;1.20;99.90;;;;;;4999564;28;20428;-74
2021/01/24 04:33:07;;;;;;;11.63;7.93;;;1.20;99.90;;;;;;5013008;28;21063;-74
2021/01/24 04:35:34;;;;;;;10.57;6.63;;;1.20;99.90;;;;;;4996997;28;20194;-73
2021/01/24 04:38:02;;;;;;;10.07;6.63;;;1.20;99.90;;;;;;5009107;28;20175;-73
2021/01/24 04:40:28;;;;;;;8.60;6.88;;;1.40;99.90;;;;;;5009944;28;20202;-73
2021/01/24 04:42:57;;;;;;;10.23;6.85;;;1.20;99.90;;;;;;5010118;28;20194;-73
2021/01/24 04:45:23;;;;;;;22.25;11.00;;;1.20;99.90;;;;;;4977339;28;20706;-73
2021/01/24 04:47:51;;;;;;;19.80;11.98;;;1.20;99.90;;;;;;4986000;28;20190;-73
2021/01/24 04:50:18;;;;;;;24.13;14.20;;;0.90;99.90;;;;;;4985436;28;20963;-73
2021/01/24 04:52:47;;;;;;;26.65;14.10;;;0.70;99.90;;;;;;5004117;28;20222;-73
2021/01/24 04:55:14;;;;;;;24.08;12.40;;;0.80;99.90;;;;;;5013010;28;20205;-73
2021/01/24 04:57:40;;;;;;;24.85;12.50;;;1.20;99.90;;;;;;5005661;28;20225;-73
2021/01/24 05:00:07;;;;;;;16.10;8.68;;;1.10;99.90;;;;;;5010700;28;20201;-74
2021/01/24 05:02:35;;;;;;;18.20;9.07;;;1.20;99.90;;;;;;4994188;28;20300;-74
2021/01/24 05:05:01;;;;;;;17.27;7.55;;;1.10;99.90;;;;;;5001570;28;20196;-74
2021/01/24 05:07:27;;;;;;;10.35;6.38;;;1.40;99.90;;;;;;5023148;28;20240;-73
2021/01/24 05:09:57;;;;;;;14.20;7.65;;;1.10;99.90;;;;;;4980768;28;20213;-73
2021/01/24 05:12:23;;;;;;;17.77;9.23;;;1.20;99.90;;;;;;5017943;28;20202;-74
2021/01/24 05:14:49;;;;;;;26.25;11.60;;;1.20;99.90;;;;;;4980978;28;20175;-74
2021/01/24 05:17:16;;;;;;;19.55;11.38;;;1.10;99.90;;;;;;4998592;28;20289;-74
2021/01/24 05:19:43;;;;;;;31.45;14.60;;;1.10;99.90;;;;;;4975659;28;20206;-73
2021/01/24 05:22:10;;;;;;;34.67;20.15;;;1.20;99.90;;;;;;4993106;28;20183;-73
2021/01/24 05:24:37;;;;;;;33.75;17.48;;;1.10;99.90;;;;;;4975787;28;20167;-73
2021/01/24 05:27:25;;;;;;;36.53;18.00;;;1.40;99.90;;;;;;4988796;28;20653;-73
2021/01/24 05:29:51;;;;;;;30.98;15.48;;;1.20;99.90;;;;;;4992723;28;20303;-74
2021/01/24 05:32:17;;;;;;;18.20;10.77;;;1.20;99.90;;;;;;5007767;28;20253;-73
2021/01/24 05:34:48;;;;;;;14.80;9.20;;;1.50;99.90;;;;;;5008145;28;20191;-73
2021/01/24 05:37:15;;;;;;;20.95;13.05;;;1.20;99.90;;;;;;5007619;28;20432;-74
2021/01/24 05:39:44;;;;;;;17.30;10.20;;;1.40;99.90;;;;;;5007975;28;20218;-74
2021/01/24 05:42:11;;;;;;;13.40;8.63;;;1.30;99.90;;;;;;5007798;28;20589;-74
2021/01/24 05:44:39;;;;;;;9.25;5.88;;;1.30;99.90;;;;;;5007828;28;20183;-74
2021/01/24 05:47:05;;;;;;;7.63;5.30;;;1.20;99.90;;;;;;4958908;28;20221;-73
2021/01/24 05:49:33;;;;;;;6.67;4.57;;;1.30;99.90;;;;;;5007911;28;20206;-73
2021/01/24 05:52:00;;;;;;;5.70;4.10;;;1.30;99.90;;;;;;4992328;28;20465;-72
2021/01/24 05:54:43;;;;;;;6.20;3.58;;;1.20;99.90;;;;;;4991347;28;20182;-73
2021/01/24 05:57:12;;;;;;;11.23;3.70;;;1.30;99.90;;;;;;5007165;28;20210;-73
2021/01/24 05:59:49;;;;;;;5.00;4.05;;;1.40;99.90;;;;;;5010338;28;20221;-73
2021/01/24 06:02:19;;;;;;;9.52;5.18;;;1.20;99.90;;;;;;5000079;28;20277;-71
2021/01/24 06:04:45;;;;;;;6.40;4.88;;;1.30;99.90;;;;;;4961055;28;20241;-73
2021/01/24 06:07:14;;;;;;;6.55;4.88;;;1.30;99.90;;;;;;4993534;28;20186;-73
2021/01/24 06:09:40;;;;;;;9.10;5.55;;;1.40;99.90;;;;;;5011731;28;20248;-73
2021/01/24 06:12:10;;;;;;;10.43;6.30;;;1.30;99.90;;;;;;5012925;28;20206;-73
2021/01/24 06:14:41;;;;;;;10.85;7.07;;;1.30;99.90;;;;;;4971631;28;20223;-73
2021/01/24 06:17:21;;;;;;;10.65;6.80;;;1.40;99.90;;;;;;4999890;28;20218;-72
2021/01/24 06:19:56;;;;;;;19.02;11.43;;;1.30;99.90;;;;;;4994016;28;20210;-73
2021/01/24 06:22:26;;;;;;;18.70;10.73;;;1.50;99.90;;;;;;4958849;28;20556;-74
2021/01/24 06:24:56;;;;;;;22.88;14.90;;;1.30;99.90;;;;;;5007428;28;20707;-73
2021/01/24 06:27:26;;;;;;;26.75;14.98;;;1.50;99.90;;;;;;4989037;28;20245;-74
2021/01/24 06:29:57;;;;;;;29.80;18.40;;;1.40;99.90;;;;;;4975079;28;20206;-73
2021/01/24 06:32:25;;;;;;;32.95;18.80;;;1.40;99.90;;;;;;4998681;28;20276;-74
2021/01/24 06:34:54;;;;;;;28.05;17.55;;;1.40;99.90;;;;;;5009034;28;20178;-74
2021/01/24 06:37:25;;;;;;;26.55;15.30;;;1.20;99.90;;;;;;5017173;28;20276;-73
2021/01/24 06:39:58;;;;;;;19.48;11.80;;;1.50;99.90;;;;;;4993835;28;20243;-74
2021/01/24 06:42:37;;;;;;;17.52;9.88;;;1.50;99.90;;;;;;5005001;28;20178;-73
2021/01/24 06:45:26;;;;;;;13.02;7.60;;;1.70;99.90;;;;;;4990361;28;20166;-73
2021/01/24 06:48:00;;;;;;;13.13;7.60;;;1.80;99.90;;;;;;4991699;28;20190;-73
2021/01/24 06:50:36;;;;;;;14.38;8.77;;;1.50;99.90;;;;;;4990627;28;20178;-73
2021/01/24 06:53:13;;;;;;;18.20;8.23;;;1.60;99.90;;;;;;4991789;28;20198;-73
2021/01/24 06:55:51;;;;;;;12.50;8.73;;;1.50;99.90;;;;;;5006472;28;20171;-74
2021/01/24 06:58:24;;;;;;;13.98;9.75;;;1.50;99.90;;;;;;5006844;28;20349;-73
2021/01/24 07:00:54;;;;;;;19.20;10.10;;;1.50;99.90;;;;;;4990796;28;20266;-75
2021/01/24 07:03:20;;;;;;;22.55;10.65;;;1.60;99.90;;;;;;5005544;28;20201;-74
2021/01/24 07:05:47;;;;;;;19.02;10.45;;;1.60;99.90;;;;;;5005592;28;20563;-75
2021/01/24 07:08:32;;;;;;;17.17;10.95;;;1.70;99.90;;;;;;5015972;28;20216;-75
2021/01/24 07:11:03;;;;;;;16.58;10.23;;;1.50;99.90;;;;;;5023392;28;20213;-75
2021/01/24 07:13:30;;;;;;;17.35;10.95;;;1.80;99.90;;;;;;4975730;28;20558;-75
2021/01/24 07:16:07;;;;;;;15.05;8.75;;;1.60;99.90;;;;;;4986038;28;20285;-73
2021/01/24 07:18:43;;;;;;;14.30;9.48;;;1.60;99.90;;;;;;4987233;28;20205;-76
2021/01/24 07:21:11;;;;;;;16.80;9.45;;;1.80;99.90;;;;;;5011859;28;20189;-75
2021/01/24 07:23:40;;;;;;;15.25;9.75;;;1.60;99.90;;;;;;5003172;28;20255;-74
2021/01/24 07:26:10;;;;;;;16.10;9.55;;;1.70;99.90;;;;;;5024660;28;20189;-75
2021/01/24 07:28:37;;;;;;;21.63;10.98;;;1.80;99.90;;;;;;4986057;28;20577;-74
2021/01/24 07:31:07;;;;;;;17.45;11.30;;;1.80;99.90;;;;;;4975269;28;20701;-75
2021/01/24 07:33:37;;;;;;;21.25;11.23;;;2.00;99.90;;;;;;4975993;28;20679;-75
2021/01/24 07:36:06;;;;;;;15.45;10.68;;;1.80;99.90;;;;;;4991452;28;20193;-74
2021/01/24 07:38:32;;;;;;;21.08;12.20;;;1.90;99.90;;;;;;5009554;28;20260;-74
2021/01/24 07:41:01;;;;;;;19.67;11.45;;;1.80;99.90;;;;;;5002767;28;20193;-75
2021/01/24 07:43:29;;;;;;;19.42;11.32;;;1.80;99.90;;;;;;4986250;28;20193;-75
2021/01/24 07:45:57;;;;;;;21.80;13.57;;;1.80;99.90;;;;;;5006392;28;20208;-75
2021/01/24 07:48:26;;;;;;;24.67;13.77;;;2.00;99.90;;;;;;4979154;28;20209;-75
2021/01/24 07:50:54;;;;;;;22.15;13.50;;;2.10;99.90;;;;;;4989533;28;20185;-74
2021/01/24 07:53:22;;;;;;;23.90;15.13;;;2.10;99.90;;;;;;4987750;28;20324;-75
2021/01/24 07:55:48;;;;;;;24.73;14.27;;;2.20;99.90;;;;;;4996275;28;20663;-74
2021/01/24 07:58:14;;;;;;;23.65;15.48;;;2.10;99.90;;;;;;5007914;28;20698;-74
2021/01/24 08:00:43;;;;;;;23.10;13.88;;;2.10;99.90;;;;;;4994276;28;20198;-74
2021/01/24 08:03:09;;;;;;;27.10;14.75;;;2.10;99.90;;;;;;5015564;28;20198;-74
2021/01/24 08:05:35;;;;;;;25.30;15.70;;;2.10;99.90;;;;;;4987207;28;21138;-76
2021/01/24 08:08:02;;;;;;;25.35;16.98;;;2.10;99.90;;;;;;5017760;28;20461;-74
2021/01/24 08:10:32;;;;;;;27.27;17.02;;;2.10;99.90;;;;;;5005835;28;20467;-73
2021/01/24 08:13:00;;;;;;;28.02;16.90;;;2.20;99.90;;;;;;4984418;28;20202;-73
2021/01/24 08:15:29;;;;;;;28.02;17.60;;;2.20;99.90;;;;;;5011495;28;20667;-74
2021/01/24 08:17:57;;;;;;;28.55;17.33;;;2.30;99.90;;;;;;4990104;28;20189;-74
2021/01/24 08:20:24;;;;;;;32.95;20.08;;;2.40;99.90;;;;;;4998640;28;20190;-73
2021/01/24 08:22:55;;;;;;;31.85;17.70;;;2.20;99.90;;;;;;5013565;28;20187;-74
2021/01/24 08:25:22;;;;;;;36.42;18.90;;;2.30;99.90;;;;;;5009736;28;20197;-73
2021/01/24 08:27:49;;;;;;;36.75;19.15;;;2.30;99.90;;;;;;4993089;28;20226;-73
2021/01/24 08:30:16;;;;;;;32.67;17.95;;;2.30;99.90;;;;;;5002304;28;20185;-74
2021/01/24 08:32:43;;;;;;;27.70;17.20;;;2.30;99.90;;;;;;5007130;28;20561;-73
2021/01/24 08:35:12;;;;;;;25.38;16.10;;;2.40;99.90;;;;;;4984422;28;20186;-73
2021/01/24 08:37:39;;;;;;;25.95;15.80;;;2.30;99.90;;;;;;5001498;28;20205;-73
2021/01/24 08:40:06;;;;;;;24.92;15.57;;;2.40;99.90;;;;;;4997151;28;20206;-73
2021/01/24 08:42:50;;;;;;;27.45;15.15;;;2.30;99.90;;;;;;4989089;28;20680;-73
2021/01/24 08:45:22;;;;;;;24.38;15.38;;;2.40;99.90;;;;;;4998711;28;20189;-73
2021/01/24 08:47:50;;;;;;;22.55;15.02;;;2.40;99.90;;;;;;4982344;28;20222;-73
2021/01/24 08:50:16;;;;;;;24.58;14.50;;;2.50;99.90;;;;;;4992467;28;20193;-72
2021/01/24 08:52:43;;;;;;;24.27;15.77;;;2.70;99.90;;;;;;5003411;28;20296;-73
2021/01/24 08:55:09;;;;;;;24.30;14.77;;;2.40;99.90;;;;;;4991380;28;20186;-73
2021/01/24 08:57:36;;;;;;;20.15;13.48;;;2.40;99.90;;;;;;4984499;28;20198;-73
2021/01/24 09:00:09;;;;;;;27.25;13.70;;;2.40;99.90;;;;;;5009505;28;20206;-72
2021/01/24 09:02:40;;;;;;;21.52;12.52;;;2.70;99.90;;;;;;4988068;28;20194;-72
2021/01/24 09:05:13;;;;;;;19.65;11.07;;;2.40;99.90;;;;;;5018579;28;20272;-72
2021/01/24 09:07:43;;;;;;;18.10;10.57;;;2.60;99.90;;;;;;4976901;28;20591;-72
2021/01/24 09:10:16;;;;;;;16.17;10.57;;;2.50;99.90;;;;;;4999322;28;20220;-73
2021/01/24 09:12:44;;;;;;;18.27;9.65;;;2.70;99.90;;;;;;4992666;28;20212;-72
2021/01/24 09:15:10;;;;;;;15.23;9.65;;;2.50;99.90;;;;;;5022436;28;20202;-72
2021/01/24 09:17:36;;;;;;;13.48;9.35;;;2.50;99.90;;;;;;4999021;28;20597;-72
2021/01/24 09:20:03;;;;;;;13.82;8.80;;;2.50;99.90;;;;;;4997517;28;20233;-72
2021/01/24 09:22:30;;;;;;;16.42;9.85;;;2.40;99.90;;;;;;5001200;28;20317;-73
2021/01/24 09:24:58;;;;;;;13.27;8.35;;;2.40;99.90;;;;;;5006992;28;20237;-72
2021/01/24 09:27:25;;;;;;;11.82;7.85;;;2.40;99.90;;;;;;5000712;28;20300;-72
2021/01/24 09:29:53;;;;;;;12.40;8.90;;;2.50;99.90;;;;;;5024257;28;20217;-72
2021/01/24 09:32:20;;;;;;;16.00;8.90;;;2.50;99.90;;;;;;5000399;28;20225;-72
2021/01/24 09:34:46;;;;;;;12.75;8.27;;;2.40;99.90;;;;;;5021957;28;21693;-73
2021/01/24 09:37:13;;;;;;;12.27;7.72;;;2.70;99.90;;;;;;5005143;28;20178;-73
2021/01/24 09:39:39;;;;;;;11.23;7.20;;;2.50;99.90;;;;;;4970546;28;20214;-72
2021/01/24 09:42:10;;;;;;;11.88;7.28;;;2.50;99.90;;;;;;5002131;28;20201;-73
2021/01/24 09:44:36;;;;;;;10.85;6.57;;;2.70;99.90;;;;;;5015538;28;20175;-71
2021/01/24 09:47:02;;;;;;;10.00;6.75;;;2.80;99.90;;;;;;4993849;28;21259;-72
2021/01/24 09:49:28;;;;;;;8.75;6.18;;;2.70;99.90;;;;;;5019869;28;20210;-72
2021/01/24 09:51:55;;;;;;;9.25;6.40;;;2.90;99.90;;;;;;4990057;28;20252;-72
2021/01/24 09:54:21;;;;;;;12.02;6.95;;;2.70;99.90;;;;;;5014214;28;20174;-72
2021/01/24 09:56:47;;;;;;;11.45;7.07;;;2.80;99.90;;;;;;4994450;28;20706;-72
2021/01/24 09:59:14;;;;;;;12.47;8.73;;;2.90;99.90;;;;;;5021095;28;20212;-72
2021/01/24 10:01:42;;;;;;;11.30;9.43;;;2.70;99.90;;;;;;5012601;28;20440;-73
2021/01/24 10:04:08;;;;;;;12.45;8.20;;;2.90;99.90;;;;;;4993569;28;20236;-72
2021/01/24 10:06:35;;;;;;;9.93;8.18;;;2.90;99.90;;;;;;4961567;28;20177;-72
2021/01/24 10:09:04;;;;;;;9.55;8.25;;;3.00;99.90;;;;;;4985727;28;20212;-72
2021/01/24 10:11:31;;;;;;;12.63;8.13;;;2.70;99.90;;;;;;4991616;28;20256;-72
2021/01/24 10:13:58;;;;;;;11.23;8.27;;;3.00;99.90;;;;;;5005926;28;20198;-72
2021/01/24 10:16:24;;;;;;;13.05;8.90;;;3.00;99.90;;;;;;4975715;28;20183;-73
2021/01/24 10:18:55;;;;;;;14.90;9.98;;;2.90;99.90;;;;;;4968828;28;20297;-72
2021/01/24 10:21:21;;;;;;;15.65;10.88;;;3.00;99.90;;;;;;5006252;28;20604;-72
2021/01/24 10:23:47;;;;;;;11.27;8.90;;;2.90;99.90;;;;;;5001175;28;20198;-72
2021/01/24 10:26:14;;;;;;;13.50;9.45;;;2.90;99.90;;;;;;5019080;28;20268;-72
2021/01/24 10:28:40;;;;;;;15.32;10.30;;;2.90;99.90;;;;;;5016411;28;20261;-73
2021/01/24 10:31:07;;;;;;;15.35;9.15;;;2.90;99.90;;;;;;4999137;28;20588;-71
2021/01/24 10:33:33;;;;;;;14.13;9.10;;;2.90;99.90;;;;;;5004902;28;20563;-72
2021/01/24 10:35:59;;;;;;;12.77;9.35;;;2.90;99.90;;;;;;5000489;28;20186;-73
2021/01/24 10:38:25;;;;;;;11.65;8.88;;;3.00;99.90;;;;;;5000444;28;20206;-76
2021/01/24 10:40:52;;;;;;;17.52;9.60;;;2.80;99.90;;;;;;4989878;28;20182;-73
2021/01/24 10:43:18;;;;;;;11.80;8.93;;;2.80;99.90;;;;;;4984865;28;20193;-73
2021/01/24 10:45:45;;;;;;;15.00;10.05;;;2.70;99.90;;;;;;5002495;28;20193;-73
2021/01/24 10:48:11;;;;;;;15.02;9.88;;;2.80;99.90;;;;;;5007179;28;20213;-75
2021/01/24 10:50:39;;;;;;;14.30;8.88;;;2.80;99.90;;;;;;4996828;28;20233;-76
2021/01/24 10:53:06;;;;;;;12.55;8.95;;;2.80;99.90;;;;;;5012680;28;20205;-74
2021/01/24 10:55:36;;;;;;;16.48;9.25;;;2.70;99.90;;;;;;5006311;28;20205;-74
2021/01/24 10:58:03;;;;;;;14.48;8.40;;;2.90;99.90;;;;;;4968309;28;20190;-75
2021/01/24 11:00:32;;;;;;;19.38;9.35;;;2.60;99.90;;;;;;4964249;28;20253;-75
2021/01/24 11:02:58;;;;;;;14.75;9.68;;;2.90;99.90;;;;;;5014407;28;20225;-74
2021/01/24 11:05:24;;;;;;;10.57;7.90;;;2.80;99.90;;;;;;5009085;28;20189;-75
2021/01/24 11:07:52;;;;;;;11.63;7.70;;;2.80;99.90;;;;;;5027416;28;20277;-73
2021/01/24 11:10:21;;;;;;;14.60;8.63;;;2.90;99.90;;;;;;4998046;28;20197;-75
2021/01/24 11:12:47;;;;;;;11.60;8.00;;;3.10;99.90;;;;;;4998615;28;20248;-75
2021/01/24 11:15:16;;;;;;;12.40;7.60;;;3.20;99.90;;;;;;5015902;28;20174;-75
2021/01/24 11:17:42;;;;;;;13.25;8.15;;;3.40;99.90;;;;;;4981826;28;20181;-73
2021/01/24 11:20:09;;;;;;;11.93;7.57;;;3.40;99.90;;;;;;4998244;28;20202;-75
2021/01/24 11:22:37;;;;;;;11.52;8.13;;;3.30;99.90;;;;;;5006892;28;20625;-73
2021/01/24 11:25:06;;;;;;;10.95;8.15;;;3.40;99.90;;;;;;4976843;28;20696;-73
2021/01/24 11:27:33;;;;;;;11.88;8.23;;;3.30;99.90;;;;;;4989591;28;20231;-73
2021/01/24 11:29:59;;;;;;;10.88;8.05;;;3.30;99.90;;;;;;4996161;28;20234;-73
2021/01/24 11:32:25;;;;;;;10.98;8.60;;;3.60;99.90;;;;;;5003521;28;20226;-73
2021/01/24 11:34:51;;;;;;;13.60;8.50;;;3.80;99.90;;;;;;5021385;28;20226;-72
2021/01/24 11:37:17;;;;;;;10.63;7.43;;;3.20;99.90;;;;;;5005827;28;20433;-73
2021/01/24 11:39:44;;;;;;;11.13;7.60;;;3.60;99.90;;;;;;5012998;28;20210;-72
2021/01/24 11:42:12;;;;;;;11.70;7.72;;;3.50;99.90;;;;;;4999134;28;20190;-73
2021/01/24 11:44:38;;;;;;;11.47;8.43;;;3.60;99.90;;;;;;4980968;28;20197;-73
2021/01/24 11:47:05;;;;;;;14.48;8.50;;;3.50;99.90;;;;;;5012262;28;20446;-72
2021/01/24 11:49:34;;;;;;;17.98;10.30;;;3.40;99.90;;;;;;4998350;28;20218;-74
2021/01/24 11:52:05;;;;;;;13.13;9.52;;;3.30;99.90;;;;;;4995241;28;20206;-74
2021/01/24 11:54:33;;;;;;;14.35;9.02;;;3.30;99.90;;;;;;5006627;28;20281;-72
2021/01/24 11:56:59;;;;;;;16.13;10.40;;;3.30;99.90;;;;;;5009769;28;20190;-70
2021/01/24 11:59:25;;;;;;;14.10;9.65;;;3.30;99.90;;;;;;5023316;28;20218;-70
2021/01/24 12:01:52;;;;;;;18.02;10.00;;;3.30;99.90;;;;;;5009081;28;20190;-79
2021/01/24 12:04:18;;;;;;;14.38;9.85;;;3.30;99.90;;;;;;5001688;28;20281;-77
2021/01/24 12:06:46;;;;;;;19.42;10.15;;;3.60;99.90;;;;;;4980122;28;20675;-72
2021/01/24 12:09:12;;;;;;;17.65;10.65;;;3.40;99.90;;;;;;5003527;23;20253;-78
2021/01/24 12:11:38;;;;;;;19.58;11.45;;;3.40;99.90;;;;;;5016993;28;20229;-80
2021/01/24 12:14:04;;;;;;;17.95;10.25;;;3.50;99.90;;;;;;5013621;28;20212;-79
2021/01/24 12:16:30;;;;;;;20.40;10.87;;;3.60;99.90;;;;;;5024012;28;20202;-79
2021/01/24 12:18:56;;;;;;;18.30;11.48;;;3.50;99.90;;;;;;5006362;28;20488;-77
2021/01/24 12:21:23;;;;;;;19.50;11.73;;;3.30;99.90;;;;;;5008652;28;20186;-78
2021/01/24 12:23:49;;;;;;;16.35;10.90;;;3.50;99.90;;;;;;5012045;28;20208;-79
2021/01/24 12:26:15;;;;;;;18.67;11.35;;;3.70;99.90;;;;;;4998101;28;20752;-78
2021/01/24 12:28:41;;;;;;;20.35;12.48;;;4.00;99.90;;;;;;4990215;28;20582;-78
2021/01/24 12:31:07;;;;;;;16.95;11.52;;;3.90;99.90;;;;;;5013529;28;20185;-79
2021/01/24 12:33:33;;;;;;;20.27;11.95;;;3.90;99.90;;;;;;4994405;28;20263;-78
2021/01/24 12:35:59;;;;;;;22.13;13.43;;;3.90;99.90;;;;;;4997860;28;20225;-79
2021/01/24 12:38:25;;;;;;;17.17;12.37;;;4.00;99.90;;;;;;5026766;28;20451;-79
2021/01/24 12:40:51;;;;;;;24.80;12.40;;;4.00;99.90;;;;;;5006169;28;20433;-79
2021/01/24 12:43:17;;;;;;;23.48;13.40;;;4.10;99.90;;;;;;5008454;28;20203;-79
2021/01/24 12:45:44;;;;;;;20.65;13.18;;;4.10;99.90;;;;;;5006645;28;20201;-78
2021/01/24 12:48:12;;;;;;;20.80;13.70;;;4.20;99.90;;;;;;4999755;28;20209;-78
2021/01/24 12:50:38;;;;;;;18.93;13.57;;;4.30;99.90;;;;;;5025705;28;20193;-79